Hettinger, ND

10:22 AM MST on March 02, 2015 (GMT -0700)
Hettinger Municipal | Change Station
CLOSE
Current Station
Airport
Location: Hettinger,
Elevation: 2703 ft
Nearby Weather Stations
Active Advisory: Special Statement

Elev 2703 ft 46.01 °N, 102.66 °W | Updated 29 minutes ago

Clear
Clear
27 °F
Feels Like 15 °F
N
16
Wind Variable Wind from South

Today
High -- | Low -- °F
--% Chance of Precip.
Yesterday
High -- | Low -- °F
Precip. -- in
6:27 AM 5:38 PM
Waxing Gibbous, 92% visible
Pressure 30.04 in
Visibility 10.0 miles
Clouds Clear
Windchill 15 °F
Dew Point 12 °F
Humidity 53%
Rainfall 0.00 in
Snow Depth Not available.
UV 3 out of 12
Pollen .10 out of 12
Air Quality Not available.
Flu Activity Not available.
METAR KHEI 021653Z AUTO 17014KT 10SM CLR M03/M11 A2989 RMK AO2 PRESFR SLP170 T10281111

More Conditions Fewer Conditions

Pressure 30.04 in
Visibility 10.0 miles
Clouds Clear
Windchill 15 °F
Dew Point 12 °F
Humidity 53%
Rainfall 0.00 in
Snow Depth Not available.
UV 3 out of 12
Pollen .10 out of 12
Air Quality Not available.
Flu Activity Not available.
METAR KHEI 021653Z AUTO 17014KT 10SM CLR M03/M11 A2989 RMK AO2 PRESFR SLP170 T10281111

More Conditions Fewer Conditions

10-Day Weather Forecast

Almanac

Astronomy

Mar. 02, 2015 Rise Set
Actual Time
Civil Twilight
Nautical Twilight
Astronomical Twilight
Moon
Length of Visible Light
Length of Day
Tomorrow will be .
, % of the Moon is Illuminated

Today's Extremes

State Highs State Lows

Community

WunderPhotos

Upload Photos

1,801,866 photos uploaded!

WunderBlogs® & News

Nearby

Air Quality

  Air Quality AQ Index Pollutant
Not available.

Snow Depth

Station Depth Elevation

Earthquake Activity

City Distance Mag. Time & Date
Minimum magnitude displayed is 2.5.

Coastal Water Temperatures

Place Temperature

Nearby Weather Stations

Special Statement
Statement as of 3:45 AM MST on March 02, 2015

... Arctic air overtakes western and central North Dakota Monday
night through Wednesday night...

An Arctic cold front will move across North Dakota Monday
night... with falling temperatures through the day on Tuesday.
Strong northwest winds gusting to 40 mph are expected through
Tuesday afternoon. This will lead to patchy blowing snow and
localized reduced visibility across the northwest... central and
eastern portions of the state. Dangerous wind chills to 40 below
are possible Tuesday night into Wednesday morning area wide... with
wind chills to 35 below Wednesday night north central and east.
Those traveling should be prepared for possible difficult travel
conditions Tuesday.